METAR AND TAF INFORMATION
METAR FOR KSVE
ADDS - METARS form results

(0409 UTC 30 March 2020)
Data provider http://aviationweather.gov/metar/data/
 
METAR text: KSVE 300355Z AUTO 31004KT 10SM SCT039 SCT048 05/M01 A3007 RMK AO2
Conditions at: KSVE (SUSANVILLE MUNI , CA, US) observed 0355 UTC 30 March 2020
Temperature: 5.0°C (41°F)
Dewpoint: -1.0°C (30°F) [RH = 65%]
Pressure (altimeter): 30.07 inches Hg (1018.4 mb)
Winds: from the NW (310 degrees) at 5 MPH (4 knots; 2.1 m/s)
Visibility: 10 or more miles (16+ km)
Ceiling: at least 12,000 feet AGL
Clouds: scattered clouds at 3900 feet AGL
scattered clouds at 4800 feet AGL
Weather: automated observation with no human augmentation;
there may or may not be significant weather present at this time

METAR text: KSVE 300335Z AUTO 29006KT 10SM CLR 05/M01 A3006 RMK AO2
Conditions at: KSVE (SUSANVILLE MUNI , CA, US) observed 0335 UTC 30 March 2020
Temperature: 5.0°C (41°F)
Dewpoint: -1.0°C (30°F) [RH = 65%]
Pressure (altimeter): 30.06 inches Hg (1018.0 mb)
Winds: from the WNW (290 degrees) at 7 MPH (6 knots; 3.1 m/s)
Visibility: 10 or more miles (16+ km)
Ceiling: at least 12,000 feet AGL
Clouds: sky clear below 12,000 feet AGL
Weather: automated observation with no human augmentation;
there may or may not be significant weather present at this time

METAR text: KSVE 300315Z AUTO 27004KT 10SM CLR 06/M01 A3005 RMK AO2
Conditions at: KSVE (SUSANVILLE MUNI , CA, US) observed 0315 UTC 30 March 2020
Temperature: 6.0°C (43°F)
Dewpoint: -1.0°C (30°F) [RH = 61%]
Pressure (altimeter): 30.05 inches Hg (1017.7 mb)
Winds: from the W (270 degrees) at 5 MPH (4 knots; 2.1 m/s)
Visibility: 10 or more miles (16+ km)
Ceiling: at least 12,000 feet AGL
Clouds: sky clear below 12,000 feet AGL
Weather: automated observation with no human augmentation;
there may or may not be significant weather present at this time

 AIRPORT MAP

 RUNWAY INFORMATION
Runway 07 Runway length 2179 ft Runway width 60 ft
Runway elevation 4149 ft Runway displaced threshold 0 ft Runway heading 89
Runway 25 Runway length 2179 ft Runway width 60 ft
Runway elevation 4131 ft Runway displaced threshold 0 ft Runway heading 269
Runway 11 Runway length 4049 ft Runway width 75 ft
Runway elevation 4147 ft Runway displaced threshold 0 ft Runway heading 129
Runway 29 Runway length 4049 ft Runway width 75 ft
Runway elevation 4122 ft Runway displaced threshold 0 ft Runway heading 309

 AIRPORT FREQUENCIES
Type AWOS Name AWOS 3 Frequency 133.8 MHZ
Type CNTR Name OAKLAND CN Frequency 128.8 MHZ
Type UNIC Name CTAF/UNICO Frequency 122.8 MHZ

 AIRPORT NEAR NAVIGATION AIDS



Powered by Virtual Airlines Manager [v2.6.2]